createdAt,value
2019-03-27T00:00:48.882Z,6.58
2019-03-27T00:03:17.413Z,7.10
2019-03-27T00:05:45.626Z,6.80
2019-03-27T00:08:13.831Z,6.20
2019-03-27T00:10:42.034Z,6.30
2019-03-27T00:13:10.231Z,6.30
2019-03-27T00:15:38.467Z,6.40
2019-03-27T00:18:06.960Z,6.45
2019-03-27T00:20:35.179Z,6.15
2019-03-27T00:23:03.415Z,6.28
2019-03-27T00:25:31.659Z,6.35
2019-03-27T00:28:00.096Z,6.33
2019-03-27T00:30:28.317Z,5.87
2019-03-27T00:32:56.519Z,6.00
2019-03-27T00:35:25.002Z,5.83
2019-03-27T00:37:53.193Z,5.95
2019-03-27T00:40:21.753Z,6.00
2019-03-27T00:42:50.240Z,5.67
2019-03-27T00:45:26.611Z,6.00
2019-03-27T00:47:48.391Z,5.47
2019-03-27T00:50:16.634Z,5.28
2019-03-27T00:52:45.374Z,5.90
2019-03-27T00:55:13.963Z,5.62
2019-03-27T00:57:42.180Z,5.50
2019-03-27T01:00:27.717Z,6.05
2019-03-27T01:02:55.934Z,6.12
2019-03-27T01:05:24.137Z,5.40
2019-03-27T01:07:52.362Z,5.58
2019-03-27T01:10:22.780Z,5.30
2019-03-27T01:12:50.565Z,5.37
2019-03-27T01:15:19.124Z,5.50
2019-03-27T01:17:47.605Z,5.22
2019-03-27T01:20:15.805Z,4.72
2019-03-27T01:22:44.364Z,5.15
2019-03-27T01:25:12.558Z,5.20
2019-03-27T01:27:40.767Z,5.28
2019-03-27T01:30:08.963Z,4.90
2019-03-27T01:32:37.174Z,4.45
2019-03-27T01:35:05.371Z,4.80
2019-03-27T01:37:33.588Z,4.37
2019-03-27T01:40:01.783Z,4.33
2019-03-27T01:42:29.993Z,4.37
2019-03-27T01:44:58.201Z,4.62
2019-03-27T01:47:26.705Z,4.65
2019-03-27T01:49:54.907Z,4.25
2019-03-27T01:52:23.115Z,4.42
2019-03-27T01:54:51.312Z,4.35
2019-03-27T01:57:19.535Z,4.37
2019-03-27T01:59:47.723Z,4.05
2019-03-27T02:02:15.935Z,3.87
2019-03-27T02:04:44.430Z,4.17
2019-03-27T02:07:12.640Z,3.70
2019-03-27T02:09:40.852Z,3.92
2019-03-27T02:12:09.282Z,4.30
2019-03-27T02:14:37.478Z,3.90
2019-03-27T02:17:05.710Z,3.83
2019-03-27T02:19:33.901Z,3.60
2019-03-27T02:22:02.102Z,3.80
2019-03-27T02:24:30.557Z,3.90
2019-03-27T02:26:58.759Z,4.10
2019-03-27T02:29:26.953Z,3.98
2019-03-27T02:31:55.161Z,3.35
2019-03-27T02:34:23.373Z,3.50
2019-03-27T02:36:51.580Z,3.60
2019-03-27T02:39:20.095Z,3.40
2019-03-27T02:41:48.572Z,3.87
2019-03-27T02:44:16.772Z,3.85
2019-03-27T02:46:44.970Z,3.50
2019-03-27T02:49:13.176Z,3.08
2019-03-27T02:51:41.701Z,3.50
2019-03-27T02:54:09.900Z,3.70
2019-03-27T02:56:39.728Z,3.22
2019-03-27T02:59:08.246Z,3.75
2019-03-27T03:01:36.455Z,3.27
2019-03-27T03:04:06.281Z,3.58
2019-03-27T03:06:34.474Z,3.10
2019-03-27T03:09:02.945Z,3.30
2019-03-27T03:11:31.147Z,3.10
2019-03-27T03:13:59.487Z,3.50
2019-03-27T03:16:41.266Z,3.17
2019-03-27T03:18:57.863Z,3.22
2019-03-27T03:21:26.442Z,2.90
2019-03-27T03:23:54.622Z,3.20
2019-03-27T03:26:22.814Z,3.15
2019-03-27T03:28:51.031Z,3.58
2019-03-27T03:31:19.527Z,3.33
2019-03-27T03:33:47.733Z,3.08
2019-03-27T03:36:16.196Z,3.00
2019-03-27T03:38:44.403Z,3.77
2019-03-27T03:41:12.625Z,3.52
2019-03-27T03:43:40.833Z,3.12
2019-03-27T03:46:09.024Z,2.95
2019-03-27T03:48:37.239Z,2.98
2019-03-27T03:51:05.727Z,3.00
2019-03-27T03:53:33.934Z,3.35
2019-03-27T03:56:02.127Z,2.77
2019-03-27T03:58:30.714Z,3.20
2019-03-27T04:01:00.515Z,3.25
2019-03-27T04:03:28.730Z,2.90
2019-03-27T04:05:56.934Z,2.92
2019-03-27T04:08:25.510Z,3.17
2019-03-27T04:10:53.982Z,3.10
2019-03-27T04:13:22.183Z,3.22
2019-03-27T04:15:50.388Z,2.77
2019-03-27T04:18:20.224Z,2.98
2019-03-27T04:20:48.428Z,3.00
2019-03-27T04:23:16.631Z,2.70
2019-03-27T04:26:08.072Z,3.02
2019-03-27T04:28:14.748Z,3.42
2019-03-27T04:30:42.941Z,2.98
2019-03-27T04:33:11.152Z,3.10
2019-03-27T04:35:39.591Z,2.90
2019-03-27T04:38:07.787Z,2.87
2019-03-27T04:40:36.008Z,3.27
2019-03-27T04:43:04.191Z,3.02
2019-03-27T04:45:32.406Z,2.83
2019-03-27T04:48:00.607Z,3.20
2019-03-27T04:50:28.818Z,3.00
2019-03-27T04:52:57.331Z,3.10
2019-03-27T04:55:25.550Z,2.80
2019-03-27T04:57:53.740Z,3.12
2019-03-27T05:00:21.946Z,3.40
2019-03-27T05:02:50.443Z,3.30
2019-03-27T05:05:19.027Z,3.10
2019-03-27T05:07:47.221Z,3.15
2019-03-27T05:10:15.434Z,2.80
2019-03-27T05:12:43.633Z,2.98
2019-03-27T05:15:11.842Z,3.30
2019-03-27T05:17:45.835Z,2.95
2019-03-27T05:20:09.975Z,3.00
2019-03-27T05:22:38.179Z,3.22
2019-03-27T05:25:07.061Z,3.77
2019-03-27T05:27:36.481Z,3.80
2019-03-27T05:30:06.379Z,2.92
2019-03-27T05:32:34.654Z,3.65
2019-03-27T05:35:02.935Z,3.40
2019-03-27T05:37:31.143Z,3.37
2019-03-27T05:39:59.347Z,2.92
2019-03-27T05:42:27.544Z,3.52
2019-03-27T05:44:55.827Z,3.27
2019-03-27T05:47:24.020Z,3.40
2019-03-27T05:49:52.230Z,3.50
2019-03-27T05:52:20.430Z,3.27
2019-03-27T05:54:48.639Z,3.22
2019-03-27T05:57:17.138Z,2.95
2019-03-27T05:59:45.703Z,3.62
2019-03-27T06:02:13.903Z,3.52
2019-03-27T06:04:42.455Z,3.33
2019-03-27T06:07:10.944Z,3.42
2019-03-27T06:09:39.517Z,3.72
2019-03-27T06:12:07.730Z,3.47
2019-03-27T06:14:35.952Z,3.40
2019-03-27T06:17:04.151Z,3.15
2019-03-27T06:19:32.369Z,3.35
2019-03-27T06:22:00.565Z,3.65
2019-03-27T06:24:29.076Z,3.25
2019-03-27T06:26:57.272Z,3.55
2019-03-27T06:29:25.495Z,3.70
2019-03-27T06:31:53.696Z,3.92
2019-03-27T06:34:22.280Z,4.25
2019-03-27T06:36:50.482Z,4.50
2019-03-27T06:39:18.773Z,4.55
2019-03-27T06:41:46.976Z,4.37
2019-03-27T06:44:15.182Z,3.95
2019-03-27T06:46:43.374Z,4.20
2019-03-27T06:49:11.838Z,4.20
2019-03-27T06:51:40.639Z,6.25
2019-03-27T06:54:08.924Z,9.63
2019-03-27T06:56:37.127Z,11.03
2019-03-27T06:59:05.334Z,9.33
2019-03-27T07:01:33.545Z,9.28
2019-03-27T07:04:10.419Z,8.65
2019-03-27T07:06:31.935Z,7.62
2019-03-27T07:09:00.145Z,24.37
2019-03-27T07:11:28.429Z,20.15
2019-03-27T07:13:56.952Z,16.37
2019-03-27T07:16:25.427Z,14.55
2019-03-27T07:18:53.638Z,14.55
2019-03-27T07:21:21.849Z,12.13
2019-03-27T07:23:50.369Z,11.70
2019-03-27T07:26:18.576Z,17.23
2019-03-27T07:28:46.874Z,23.77
2019-03-27T07:31:15.397Z,17.50
2019-03-27T07:33:43.605Z,15.30
2019-03-27T07:36:11.815Z,14.53
2019-03-27T07:38:40.026Z,24.90
2019-03-27T07:41:08.232Z,25.05
2019-03-27T07:43:36.448Z,20.08
2019-03-27T07:46:04.648Z,14.58
2019-03-27T07:48:32.851Z,18.27
2019-03-27T07:51:01.399Z,20.05
2019-03-27T07:53:29.880Z,17.95
2019-03-27T07:55:58.105Z,19.17
2019-03-27T07:58:26.312Z,18.17
2019-03-27T08:00:54.554Z,18.40
2019-03-27T08:03:22.766Z,18.57
2019-03-27T08:05:51.265Z,17.73
2019-03-27T08:08:19.475Z,16.87
2019-03-27T08:10:47.687Z,17.95
2019-03-27T08:13:16.256Z,16.40
2019-03-27T08:15:46.829Z,15.90
2019-03-27T08:18:15.030Z,15.58
2019-03-27T08:20:43.247Z,15.88
2019-03-27T08:23:11.455Z,15.75
2019-03-27T08:25:40.025Z,15.55
2019-03-27T08:28:08.229Z,14.03
2019-03-27T08:30:36.452Z,14.47
2019-03-27T08:33:04.963Z,14.10
2019-03-27T08:35:33.187Z,13.30
2019-03-27T08:38:01.717Z,12.95
2019-03-27T08:40:29.932Z,13.35
2019-03-27T08:42:58.476Z,12.47
2019-03-27T08:45:26.686Z,11.65
2019-03-27T08:47:54.897Z,12.10
2019-03-27T08:50:23.112Z,12.13
2019-03-27T08:52:51.320Z,11.33
2019-03-27T08:55:19.853Z,10.68
2019-03-27T08:57:48.069Z,11.18
2019-03-27T09:00:21.331Z,10.90
2019-03-27T09:02:49.801Z,10.35
2019-03-27T09:05:18.296Z,10.48
2019-03-27T09:07:46.493Z,10.25
2019-03-27T09:10:14.942Z,9.95
2019-03-27T09:12:43.138Z,9.40
2019-03-27T09:15:11.367Z,9.35
2019-03-27T09:17:39.543Z,9.78
2019-03-27T09:20:07.747Z,8.75
2019-03-27T09:22:35.963Z,8.88
2019-03-27T09:25:07.770Z,8.80
2019-03-27T09:27:35.988Z,8.48
2019-03-27T09:30:07.171Z,7.85
2019-03-27T09:32:35.662Z,8.73
2019-03-27T09:35:04.401Z,7.53
2019-03-27T09:37:32.623Z,8.08
2019-03-27T09:40:01.112Z,7.67
2019-03-27T09:42:29.326Z,7.87
2019-03-27T09:44:57.524Z,7.08
2019-03-27T09:47:26.033Z,7.33
2019-03-27T09:49:54.236Z,7.42
2019-03-27T09:52:22.793Z,7.08
2019-03-27T09:54:53.105Z,7.28
2019-03-27T09:57:21.294Z,6.70
2019-03-27T09:59:49.779Z,6.47
2019-03-27T10:02:18.353Z,6.83
2019-03-27T10:04:46.546Z,6.47
2019-03-27T10:07:15.111Z,6.55
2019-03-27T10:09:43.307Z,6.42
2019-03-27T10:12:11.521Z,6.03
2019-03-27T10:14:40.039Z,6.17
2019-03-27T10:17:08.256Z,5.95
2019-03-27T10:19:36.449Z,5.97
2019-03-27T10:22:04.674Z,5.97
2019-03-27T10:24:32.874Z,5.80
2019-03-27T10:27:01.083Z,5.55
2019-03-27T10:29:29.287Z,6.20
2019-03-27T10:31:57.497Z,5.65
2019-03-27T10:34:25.696Z,6.00
2019-03-27T10:36:53.957Z,5.50
2019-03-27T10:39:22.497Z,5.67
2019-03-27T10:41:50.710Z,5.90
2019-03-27T10:44:19.249Z,5.20
2019-03-27T10:46:47.446Z,5.47
2019-03-27T10:49:15.649Z,5.33
2019-03-27T10:51:43.847Z,5.05
2019-03-27T10:54:12.454Z,5.15
2019-03-27T10:56:40.655Z,5.03
2019-03-27T10:59:08.855Z,4.90
2019-03-27T11:01:37.056Z,4.65
2019-03-27T11:04:05.265Z,4.80
2019-03-27T11:06:33.551Z,4.87
2019-03-27T11:09:01.751Z,4.45
2019-03-27T11:11:29.956Z,4.35
2019-03-27T11:13:58.463Z,4.97
2019-03-27T11:16:26.659Z,5.03
2019-03-27T11:18:54.863Z,4.60
2019-03-27T11:21:23.477Z,4.60
2019-03-27T11:23:51.671Z,4.08
2019-03-27T11:26:19.879Z,4.28
2019-03-27T11:28:48.164Z,3.83
2019-03-27T11:31:16.368Z,4.20
2019-03-27T11:33:44.738Z,4.40
2019-03-27T11:36:13.255Z,4.00
2019-03-27T11:38:41.458Z,3.85
2019-03-27T11:41:12.226Z,3.70
2019-03-27T11:43:39.592Z,3.83
2019-03-27T11:46:07.789Z,4.20
2019-03-27T11:48:36.471Z,3.52
2019-03-27T11:51:04.667Z,3.80
2019-03-27T11:53:32.874Z,3.58
2019-03-27T11:56:03.338Z,3.52
2019-03-27T11:58:31.320Z,3.60
2019-03-27T12:00:59.519Z,3.52
2019-03-27T12:03:27.718Z,3.42
2019-03-27T12:05:55.925Z,3.62
2019-03-27T12:08:24.114Z,3.45
2019-03-27T12:10:52.591Z,3.25
2019-03-27T12:13:20.795Z,3.58
2019-03-27T12:15:48.994Z,3.20
2019-03-27T12:18:17.444Z,3.33
2019-03-27T12:20:58.213Z,3.10
2019-03-27T12:23:15.919Z,2.65
2019-03-27T12:25:44.118Z,3.15
2019-03-27T12:28:12.677Z,3.00
2019-03-27T12:30:40.870Z,3.02
2019-03-27T12:33:09.088Z,2.90
2019-03-27T12:35:37.602Z,2.72
2019-03-27T12:38:05.862Z,3.08
2019-03-27T12:40:34.005Z,2.90
2019-03-27T12:43:02.214Z,2.80
2019-03-27T12:45:30.429Z,3.02
2019-03-27T12:47:58.627Z,2.87
2019-03-27T12:50:26.838Z,2.90
2019-03-27T12:52:55.338Z,2.72
2019-03-27T12:55:23.559Z,2.77
2019-03-27T12:57:52.099Z,2.85
2019-03-27T13:00:20.322Z,2.72
2019-03-27T13:02:48.523Z,2.83
2019-03-27T13:05:16.727Z,2.52
2019-03-27T13:07:50.174Z,2.80
2019-03-27T13:10:15.415Z,2.70
2019-03-27T13:12:43.609Z,2.60
2019-03-27T13:15:11.832Z,2.70
2019-03-27T13:17:40.345Z,3.12
2019-03-27T13:20:08.831Z,2.60
2019-03-27T13:22:38.396Z,2.47
2019-03-27T13:25:07.355Z,2.47
2019-03-27T13:27:35.907Z,2.60
2019-03-27T13:30:06.667Z,2.37
2019-03-27T13:32:34.859Z,2.80
2019-03-27T13:35:03.541Z,2.12
2019-03-27T13:37:31.735Z,2.22
2019-03-27T13:40:00.561Z,2.75
2019-03-27T13:42:29.044Z,2.10
2019-03-27T13:44:57.253Z,2.30
2019-03-27T13:47:25.450Z,2.27
2019-03-27T13:49:53.978Z,2.42
2019-03-27T13:52:22.175Z,2.40
2019-03-27T13:54:50.387Z,1.87
2019-03-27T13:57:18.582Z,2.58
2019-03-27T13:59:47.079Z,2.25
2019-03-27T14:02:15.278Z,2.12
2019-03-27T14:04:43.834Z,1.95
2019-03-27T14:07:12.038Z,1.77
2019-03-27T14:09:40.246Z,2.12
2019-03-27T14:12:08.451Z,2.10
2019-03-27T14:14:49.743Z,2.12
2019-03-27T14:17:06.578Z,2.10
2019-03-27T14:19:34.789Z,2.33
2019-03-27T14:22:02.995Z,2.10
2019-03-27T14:24:31.206Z,2.08
2019-03-27T14:26:59.752Z,1.98
2019-03-27T14:29:28.233Z,2.12
2019-03-27T14:31:56.437Z,2.02
2019-03-27T14:34:24.992Z,2.10
2019-03-27T14:36:53.194Z,2.20
2019-03-27T14:39:21.408Z,2.00
2019-03-27T14:41:49.946Z,2.12
2019-03-27T14:44:18.150Z,2.27
2019-03-27T14:46:46.356Z,1.60
2019-03-27T14:49:14.563Z,1.98
2019-03-27T14:51:43.218Z,1.80
2019-03-27T14:54:11.713Z,2.47
2019-03-27T14:56:39.946Z,2.37
2019-03-27T14:59:09.783Z,2.10
2019-03-27T15:01:37.983Z,1.80
2019-03-27T15:04:06.174Z,2.35
2019-03-27T15:06:34.374Z,2.00
2019-03-27T15:09:04.222Z,2.22
2019-03-27T15:11:32.715Z,2.00
2019-03-27T15:14:01.189Z,2.35
2019-03-27T15:16:29.679Z,1.72
2019-03-27T15:18:58.156Z,2.00
2019-03-27T15:21:26.635Z,1.90
2019-03-27T15:23:55.123Z,2.20
2019-03-27T15:26:23.324Z,2.00
2019-03-27T15:28:51.550Z,2.17
2019-03-27T15:31:21.065Z,2.10
2019-03-27T15:33:49.658Z,1.90
2019-03-27T15:36:18.151Z,1.75
2019-03-27T15:38:46.338Z,2.00
2019-03-27T15:41:14.539Z,1.95
2019-03-27T15:43:42.745Z,1.60
2019-03-27T15:46:11.243Z,1.90
2019-03-27T15:48:39.443Z,1.70
2019-03-27T15:51:07.654Z,2.30
2019-03-27T15:53:35.843Z,1.80
2019-03-27T15:56:04.354Z,2.00
2019-03-27T15:58:32.545Z,2.00
2019-03-27T16:01:01.109Z,2.00
2019-03-27T16:03:29.305Z,1.70
2019-03-27T16:05:57.859Z,1.60
2019-03-27T16:08:26.055Z,1.72
2019-03-27T16:10:54.260Z,1.70
2019-03-27T16:13:22.461Z,1.90
2019-03-27T16:15:50.676Z,1.70
2019-03-27T16:18:19.236Z,1.67
2019-03-27T16:20:47.451Z,2.00
2019-03-27T16:23:15.650Z,1.80
2019-03-27T16:25:43.858Z,2.00
2019-03-27T16:28:12.063Z,2.20
2019-03-27T16:30:40.288Z,2.42
2019-03-27T16:33:08.796Z,2.25
2019-03-27T16:35:36.996Z,2.70
2019-03-27T16:38:05.203Z,2.47
2019-03-27T16:40:44.143Z,2.35
2019-03-27T16:43:12.521Z,2.90
2019-03-27T16:45:40.724Z,2.55
2019-03-27T16:48:08.938Z,2.33
2019-03-27T16:50:37.146Z,2.77
2019-03-27T16:53:05.383Z,2.65
2019-03-27T16:55:33.925Z,2.27
2019-03-27T16:58:02.508Z,3.12
2019-03-27T17:00:30.712Z,3.10
2019-03-27T17:02:58.941Z,2.72
2019-03-27T17:05:27.142Z,2.87
2019-03-27T17:07:55.356Z,3.20
2019-03-27T17:10:23.892Z,3.12
2019-03-27T17:12:52.141Z,3.75
2019-03-27T17:15:20.346Z,4.40
2019-03-27T17:17:48.918Z,4.05
2019-03-27T17:20:17.120Z,5.17
2019-03-27T17:22:45.333Z,4.55
2019-03-27T17:25:15.691Z,4.30
2019-03-27T17:27:43.932Z,3.60
2019-03-27T17:30:12.450Z,3.45
2019-03-27T17:32:40.667Z,3.40
2019-03-27T17:35:09.204Z,3.35
2019-03-27T17:37:37.786Z,3.52
2019-03-27T17:40:06.340Z,3.98
2019-03-27T17:42:34.635Z,3.17
2019-03-27T17:45:02.856Z,3.50
2019-03-27T17:47:32.720Z,3.42
2019-03-27T17:50:01.224Z,3.27
2019-03-27T17:52:29.457Z,3.50
2019-03-27T17:54:57.752Z,3.83
2019-03-27T17:57:25.974Z,3.58
2019-03-27T17:59:54.528Z,3.67
2019-03-27T18:02:22.743Z,3.20
2019-03-27T18:04:50.957Z,3.75
2019-03-27T18:07:19.470Z,4.00
2019-03-27T18:09:47.669Z,3.47
2019-03-27T18:12:16.347Z,3.50
2019-03-27T18:14:44.547Z,3.83
2019-03-27T18:17:12.796Z,3.70
2019-03-27T18:19:40.976Z,3.77
2019-03-27T18:22:09.198Z,3.80
2019-03-27T18:24:37.696Z,3.72
2019-03-27T18:27:05.909Z,4.03
2019-03-27T18:29:34.466Z,3.45
2019-03-27T18:32:02.677Z,3.62
2019-03-27T18:34:30.906Z,4.03
2019-03-27T18:36:59.121Z,21.55
2019-03-27T18:39:27.405Z,7.20
2019-03-27T18:41:55.648Z,5.08
2019-03-27T18:44:23.852Z,5.10
2019-03-27T18:46:52.401Z,5.50
2019-03-27T18:49:21.011Z,5.45
2019-03-27T18:51:49.218Z,5.33
2019-03-27T18:54:17.426Z,4.92
2019-03-27T18:56:45.654Z,4.50
2019-03-27T18:59:13.893Z,4.85
2019-03-27T19:01:42.115Z,4.40
2019-03-27T19:04:10.332Z,4.78
2019-03-27T19:06:38.885Z,4.50
2019-03-27T19:09:08.526Z,4.45
2019-03-27T19:11:36.727Z,4.53
2019-03-27T19:14:05.265Z,5.08
2019-03-27T19:16:33.463Z,5.17
2019-03-27T19:19:01.673Z,4.85
2019-03-27T19:21:29.879Z,4.97
2019-03-27T19:23:58.086Z,5.03
2019-03-27T19:26:26.288Z,4.87
2019-03-27T19:28:54.666Z,4.62
2019-03-27T19:31:22.880Z,4.28
2019-03-27T19:33:51.097Z,4.83
2019-03-27T19:36:19.649Z,4.50
2019-03-27T19:38:47.860Z,4.25
2019-03-27T19:41:16.069Z,4.25
2019-03-27T19:43:44.350Z,4.37
2019-03-27T19:46:12.563Z,4.60
2019-03-27T19:48:40.834Z,4.15
2019-03-27T19:51:11.373Z,4.70
2019-03-27T19:53:39.312Z,4.05
2019-03-27T19:56:07.521Z,3.95
2019-03-27T19:58:36.066Z,3.90
2019-03-27T20:01:04.885Z,4.22
2019-03-27T20:03:34.821Z,3.80
2019-03-27T20:06:03.463Z,4.17
2019-03-27T20:08:31.695Z,3.95
2019-03-27T20:10:59.974Z,3.67
2019-03-27T20:13:28.192Z,4.30
2019-03-27T20:15:56.391Z,4.08
2019-03-27T20:18:24.613Z,3.85
2019-03-27T20:20:52.822Z,3.40
2019-03-27T20:23:21.024Z,3.72
2019-03-27T20:25:49.237Z,4.08
2019-03-27T20:28:17.741Z,3.60
2019-03-27T20:30:45.948Z,3.75
2019-03-27T20:33:14.496Z,3.65
2019-03-27T20:35:42.716Z,3.58
2019-03-27T20:38:11.817Z,4.12
2019-03-27T20:40:41.969Z,3.47
2019-03-27T20:43:10.166Z,3.98
2019-03-27T20:45:38.375Z,3.65
2019-03-27T20:48:06.586Z,3.65
2019-03-27T20:50:37.162Z,3.12
2019-03-27T20:53:05.358Z,3.35
2019-03-27T20:55:33.567Z,3.42
2019-03-27T20:58:02.077Z,3.55
2019-03-27T21:00:30.309Z,3.50
2019-03-27T21:02:58.516Z,3.60
2019-03-27T21:05:26.725Z,3.27
2019-03-27T21:07:55.291Z,3.22
2019-03-27T21:10:23.497Z,3.30
2019-03-27T21:12:51.700Z,9.13
2019-03-27T21:15:20.270Z,5.67
2019-03-27T21:17:48.408Z,4.90
2019-03-27T21:20:16.642Z,4.90
2019-03-27T21:22:45.135Z,4.72
2019-03-27T21:25:13.355Z,4.33
2019-03-27T21:27:41.551Z,3.90
2019-03-27T21:30:10.333Z,3.95
2019-03-27T21:32:38.891Z,4.30
2019-03-27T21:35:08.257Z,3.60
2019-03-27T21:37:36.715Z,4.17
2019-03-27T21:40:07.679Z,4.45
2019-03-27T21:42:35.886Z,4.33
2019-03-27T21:45:06.691Z,3.72
2019-03-27T21:47:34.893Z,4.10
2019-03-27T21:50:04.939Z,3.55
2019-03-27T21:52:33.172Z,3.92
2019-03-27T21:55:01.735Z,4.00
2019-03-27T21:57:30.769Z,4.00
2019-03-27T21:59:59.386Z,3.87
2019-03-27T22:02:27.888Z,3.70
2019-03-27T22:04:56.123Z,3.90
2019-03-27T22:07:24.588Z,4.50
2019-03-27T22:09:52.802Z,3.77
2019-03-27T22:12:21.304Z,3.80
2019-03-27T22:14:49.528Z,4.03
2019-03-27T22:17:17.730Z,3.77
2019-03-27T22:19:45.945Z,3.60
2019-03-27T22:22:14.150Z,3.62
2019-03-27T22:24:42.703Z,3.35
2019-03-27T22:27:10.944Z,3.17
2019-03-27T22:29:39.497Z,3.20
2019-03-27T22:32:07.695Z,3.67
2019-03-27T22:34:37.557Z,3.30
2019-03-27T22:37:05.756Z,3.05
2019-03-27T22:39:33.980Z,3.45
2019-03-27T22:42:02.311Z,9.68
2019-03-27T22:44:30.837Z,7.08
2019-03-27T22:46:59.046Z,6.30
2019-03-27T22:49:27.269Z,6.87
2019-03-27T22:51:55.541Z,5.50
2019-03-27T22:54:23.757Z,5.62
2019-03-27T22:56:52.041Z,6.08
2019-03-27T22:59:20.264Z,5.87
2019-03-27T23:01:48.464Z,5.65
2019-03-27T23:04:16.760Z,6.12
2019-03-27T23:06:44.956Z,5.80
2019-03-27T23:09:13.174Z,6.15
2019-03-27T23:11:41.672Z,6.03
2019-03-27T23:14:09.882Z,6.17
2019-03-27T23:16:38.108Z,27.80
2019-03-27T23:19:06.601Z,17.02
2019-03-27T23:21:34.810Z,11.90
2019-03-27T23:24:03.022Z,10.82
2019-03-27T23:26:31.234Z,10.10
2019-03-27T23:28:59.446Z,10.63
2019-03-27T23:31:27.976Z,9.70
2019-03-27T23:33:56.198Z,9.18
2019-03-27T23:36:24.734Z,9.05
2019-03-27T23:38:53.220Z,9.00
2019-03-27T23:41:21.803Z,9.55
2019-03-27T23:43:50.020Z,8.28
2019-03-27T23:46:18.558Z,8.38
2019-03-27T23:48:46.768Z,7.90
2019-03-27T23:51:14.989Z,8.15
2019-03-27T23:53:43.191Z,8.03
2019-03-27T23:56:16.838Z,7.10
2019-03-27T23:58:41.697Z,7.58
